sensor_id;sensor_type;location;lat;lon;timestamp;P1;durP1;ratioP1;P2;durP2;ratioP2
37288;SDS011;23174;49.462;11.000;2023-03-01T00:01:59;11.98;;;10.02;;
37288;SDS011;23174;49.462;11.000;2023-03-01T00:04:00;11.77;;;10.57;;
37288;SDS011;23174;49.462;11.000;2023-03-01T00:06:00;11.52;;;10.32;;
37288;SDS011;23174;49.462;11.000;2023-03-01T00:08:02;13.77;;;10.55;;
37288;SDS011;23174;49.462;11.000;2023-03-01T00:10:02;10.88;;;9.63;;
37288;SDS011;23174;49.462;11.000;2023-03-01T00:12:03;10.20;;;9.20;;
37288;SDS011;23174;49.462;11.000;2023-03-01T00:14:05;10.88;;;9.77;;
37288;SDS011;23174;49.462;11.000;2023-03-01T00:16:07;10.88;;;9.77;;
37288;SDS011;23174;49.462;11.000;2023-03-01T00:18:10;14.05;;;10.23;;
37288;SDS011;23174;49.462;11.000;2023-03-01T00:20:11;14.90;;;10.07;;
37288;SDS011;23174;49.462;11.000;2023-03-01T00:22:12;11.63;;;9.98;;
37288;SDS011;23174;49.462;11.000;2023-03-01T00:24:12;11.23;;;10.10;;
37288;SDS011;23174;49.462;11.000;2023-03-01T00:26:13;13.52;;;10.60;;
37288;SDS011;23174;49.462;11.000;2023-03-01T00:28:15;11.05;;;9.40;;
37288;SDS011;23174;49.462;11.000;2023-03-01T00:30:16;10.27;;;9.20;;
37288;SDS011;23174;49.462;11.000;2023-03-01T00:32:16;12.05;;;9.45;;
37288;SDS011;23174;49.462;11.000;2023-03-01T00:34:17;11.13;;;10.02;;
37288;SDS011;23174;49.462;11.000;2023-03-01T00:36:18;11.13;;;8.98;;
37288;SDS011;23174;49.462;11.000;2023-03-01T00:38:18;10.05;;;9.15;;
37288;SDS011;23174;49.462;11.000;2023-03-01T00:40:19;11.18;;;10.05;;
37288;SDS011;23174;49.462;11.000;2023-03-01T00:42:19;11.05;;;9.75;;
37288;SDS011;23174;49.462;11.000;2023-03-01T00:44:22;9.88;;;8.88;;
37288;SDS011;23174;49.462;11.000;2023-03-01T00:46:25;11.18;;;9.75;;
37288;SDS011;23174;49.462;11.000;2023-03-01T00:48:26;11.15;;;10.05;;
37288;SDS011;23174;49.462;11.000;2023-03-01T00:50:27;13.13;;;10.98;;
37288;SDS011;23174;49.462;11.000;2023-03-01T00:52:27;10.88;;;9.88;;
37288;SDS011;23174;49.462;11.000;2023-03-01T00:54:28;11.25;;;10.02;;
37288;SDS011;23174;49.462;11.000;2023-03-01T00:56:29;11.25;;;10.15;;
37288;SDS011;23174;49.462;11.000;2023-03-01T00:58:30;11.25;;;9.95;;
37288;SDS011;23174;49.462;11.000;2023-03-01T01:00:31;12.70;;;9.98;;
37288;SDS011;23174;49.462;11.000;2023-03-01T01:02:32;11.32;;;10.25;;
37288;SDS011;23174;49.462;11.000;2023-03-01T01:04:33;10.48;;;9.48;;
37288;SDS011;23174;49.462;11.000;2023-03-01T01:06:37;11.25;;;10.15;;
37288;SDS011;23174;49.462;11.000;2023-03-01T01:08:43;10.85;;;9.75;;
37288;SDS011;23174;49.462;11.000;2023-03-01T01:10:44;11.38;;;10.15;;
37288;SDS011;23174;49.462;11.000;2023-03-01T01:12:45;10.70;;;9.60;;
37288;SDS011;23174;49.462;11.000;2023-03-01T01:14:49;12.85;;;10.10;;
37288;SDS011;23174;49.462;11.000;2023-03-01T01:16:49;10.77;;;9.75;;
37288;SDS011;23174;49.462;11.000;2023-03-01T01:18:51;10.63;;;9.63;;
37288;SDS011;23174;49.462;11.000;2023-03-01T01:20:51;11.20;;;10.07;;
37288;SDS011;23174;49.462;11.000;2023-03-01T01:22:52;11.35;;;10.20;;
37288;SDS011;23174;49.462;11.000;2023-03-01T01:24:52;10.90;;;9.75;;
37288;SDS011;23174;49.462;11.000;2023-03-01T01:26:53;11.32;;;10.23;;
37288;SDS011;23174;49.462;11.000;2023-03-01T01:28:53;10.57;;;9.57;;
37288;SDS011;23174;49.462;11.000;2023-03-01T01:30:54;11.73;;;9.60;;
37288;SDS011;23174;49.462;11.000;2023-03-01T01:32:55;11.38;;;9.65;;
37288;SDS011;23174;49.462;11.000;2023-03-01T01:34:55;10.43;;;9.43;;
37288;SDS011;23174;49.462;11.000;2023-03-01T01:36:56;10.68;;;9.60;;
37288;SDS011;23174;49.462;11.000;2023-03-01T01:38:56;12.45;;;10.35;;
37288;SDS011;23174;49.462;11.000;2023-03-01T01:40:57;11.13;;;9.48;;
37288;SDS011;23174;49.462;11.000;2023-03-01T01:42:59;13.10;;;9.75;;
37288;SDS011;23174;49.462;11.000;2023-03-01T01:47:34;11.77;;;10.57;;
37288;SDS011;23174;49.462;11.000;2023-03-01T01:51:42;11.07;;;9.85;;
37288;SDS011;23174;49.462;11.000;2023-03-01T01:53:46;11.15;;;9.80;;
37288;SDS011;23174;49.462;11.000;2023-03-01T01:55:54;11.05;;;10.00;;
37288;SDS011;23174;49.462;11.000;2023-03-01T01:58:01;11.43;;;10.27;;
37288;SDS011;23174;49.462;11.000;2023-03-01T02:00:06;11.88;;;10.55;;
37288;SDS011;23174;49.462;11.000;2023-03-01T02:02:10;11.23;;;10.13;;
37288;SDS011;23174;49.462;11.000;2023-03-01T02:04:12;9.80;;;8.90;;
37288;SDS011;23174;49.462;11.000;2023-03-01T02:06:20;12.10;;;10.02;;
37288;SDS011;23174;49.462;11.000;2023-03-01T02:08:32;11.95;;;10.32;;
37288;SDS011;23174;49.462;11.000;2023-03-01T02:10:36;12.13;;;10.70;;
37288;SDS011;23174;49.462;11.000;2023-03-01T02:12:38;11.50;;;10.30;;
37288;SDS011;23174;49.462;11.000;2023-03-01T02:14:39;11.50;;;10.40;;
37288;SDS011;23174;49.462;11.000;2023-03-01T02:16:40;12.57;;;10.15;;
37288;SDS011;23174;49.462;11.000;2023-03-01T02:18:42;11.27;;;10.10;;
37288;SDS011;23174;49.462;11.000;2023-03-01T02:23:22;11.32;;;10.05;;
37288;SDS011;23174;49.462;11.000;2023-03-01T02:25:44;12.32;;;10.20;;
37288;SDS011;23174;49.462;11.000;2023-03-01T02:29:51;10.93;;;9.85;;
37288;SDS011;23174;49.462;11.000;2023-03-01T02:31:52;13.35;;;10.13;;
37288;SDS011;23174;49.462;11.000;2023-03-01T02:33:56;11.68;;;9.93;;
37288;SDS011;23174;49.462;11.000;2023-03-01T02:35:59;12.15;;;10.80;;
37288;SDS011;23174;49.462;11.000;2023-03-01T02:38:01;14.68;;;10.15;;
37288;SDS011;23174;49.462;11.000;2023-03-01T02:40:04;11.65;;;10.45;;
37288;SDS011;23174;49.462;11.000;2023-03-01T02:42:12;12.70;;;10.10;;
37288;SDS011;23174;49.462;11.000;2023-03-01T02:44:16;11.63;;;10.35;;
37288;SDS011;23174;49.462;11.000;2023-03-01T02:46:19;11.90;;;10.70;;
37288;SDS011;23174;49.462;11.000;2023-03-01T02:48:22;13.65;;;9.63;;
37288;SDS011;23174;49.462;11.000;2023-03-01T02:50:29;11.35;;;10.07;;
37288;SDS011;23174;49.462;11.000;2023-03-01T02:52:46;12.07;;;10.63;;
37288;SDS011;23174;49.462;11.000;2023-03-01T02:57:03;11.43;;;10.32;;
37288;SDS011;23174;49.462;11.000;2023-03-01T02:59:03;12.20;;;9.82;;
37288;SDS011;23174;49.462;11.000;2023-03-01T03:01:04;10.93;;;9.93;;
37288;SDS011;23174;49.462;11.000;2023-03-01T03:03:05;13.50;;;10.60;;
37288;SDS011;23174;49.462;11.000;2023-03-01T03:05:11;14.02;;;10.23;;
37288;SDS011;23174;49.462;11.000;2023-03-01T03:07:14;13.95;;;10.90;;
37288;SDS011;23174;49.462;11.000;2023-03-01T03:09:15;15.65;;;9.80;;
37288;SDS011;23174;49.462;11.000;2023-03-01T03:11:16;12.10;;;9.50;;
37288;SDS011;23174;49.462;11.000;2023-03-01T03:13:17;11.40;;;9.70;;
37288;SDS011;23174;49.462;11.000;2023-03-01T03:15:19;10.65;;;9.55;;
37288;SDS011;23174;49.462;11.000;2023-03-01T03:17:20;12.13;;;10.38;;
37288;SDS011;23174;49.462;11.000;2023-03-01T03:19:21;11.88;;;9.80;;
37288;SDS011;23174;49.462;11.000;2023-03-01T03:21:22;11.48;;;9.95;;
37288;SDS011;23174;49.462;11.000;2023-03-01T03:23:22;11.20;;;9.90;;
37288;SDS011;23174;49.462;11.000;2023-03-01T03:25:24;11.48;;;10.20;;
37288;SDS011;23174;49.462;11.000;2023-03-01T03:27:25;16.45;;;10.82;;
37288;SDS011;23174;49.462;11.000;2023-03-01T03:29:27;11.27;;;10.13;;
37288;SDS011;23174;49.462;11.000;2023-03-01T03:31:28;12.57;;;10.45;;
37288;SDS011;23174;49.462;11.000;2023-03-01T03:33:29;11.32;;;10.23;;
37288;SDS011;23174;49.462;11.000;2023-03-01T03:35:37;12.40;;;10.20;;
37288;SDS011;23174;49.462;11.000;2023-03-01T03:37:40;11.57;;;10.20;;
37288;SDS011;23174;49.462;11.000;2023-03-01T03:39:59;11.35;;;10.13;;
37288;SDS011;23174;49.462;11.000;2023-03-01T03:42:00;11.55;;;10.35;;
37288;SDS011;23174;49.462;11.000;2023-03-01T03:44:01;13.88;;;10.32;;
37288;SDS011;23174;49.462;11.000;2023-03-01T03:46:03;12.98;;;10.63;;
37288;SDS011;23174;49.462;11.000;2023-03-01T03:48:06;14.68;;;9.80;;
37288;SDS011;23174;49.462;11.000;2023-03-01T03:50:10;11.98;;;9.63;;
37288;SDS011;23174;49.462;11.000;2023-03-01T03:52:11;10.50;;;9.43;;
37288;SDS011;23174;49.462;11.000;2023-03-01T03:54:13;12.90;;;10.07;;
37288;SDS011;23174;49.462;11.000;2023-03-01T03:56:13;11.45;;;10.35;;
37288;SDS011;23174;49.462;11.000;2023-03-01T03:58:14;11.65;;;10.20;;
37288;SDS011;23174;49.462;11.000;2023-03-01T04:00:17;11.05;;;9.90;;
37288;SDS011;23174;49.462;11.000;2023-03-01T04:02:19;11.13;;;10.05;;
37288;SDS011;23174;49.462;11.000;2023-03-01T04:04:22;10.85;;;9.48;;
37288;SDS011;23174;49.462;11.000;2023-03-01T04:06:22;11.57;;;10.38;;
37288;SDS011;23174;49.462;11.000;2023-03-01T04:08:23;10.57;;;9.63;;
37288;SDS011;23174;49.462;11.000;2023-03-01T04:10:23;11.23;;;10.18;;
37288;SDS011;23174;49.462;11.000;2023-03-01T04:12:24;11.43;;;9.45;;
37288;SDS011;23174;49.462;11.000;2023-03-01T04:14:24;13.02;;;10.85;;
37288;SDS011;23174;49.462;11.000;2023-03-01T04:16:25;11.25;;;9.95;;
37288;SDS011;23174;49.462;11.000;2023-03-01T04:18:26;14.05;;;9.98;;
37288;SDS011;23174;49.462;11.000;2023-03-01T04:20:28;16.35;;;10.38;;
37288;SDS011;23174;49.462;11.000;2023-03-01T04:22:30;11.30;;;10.18;;
37288;SDS011;23174;49.462;11.000;2023-03-01T04:24:31;10.90;;;9.85;;
37288;SDS011;23174;49.462;11.000;2023-03-01T04:26:32;11.68;;;10.52;;
37288;SDS011;23174;49.462;11.000;2023-03-01T04:28:34;12.68;;;10.38;;
37288;SDS011;23174;49.462;11.000;2023-03-01T04:30:36;11.38;;;10.27;;
37288;SDS011;23174;49.462;11.000;2023-03-01T04:32:38;12.38;;;10.27;;
37288;SDS011;23174;49.462;11.000;2023-03-01T04:34:39;15.82;;;9.98;;
37288;SDS011;23174;49.462;11.000;2023-03-01T04:36:39;11.07;;;9.95;;
37288;SDS011;23174;49.462;11.000;2023-03-01T04:38:40;11.40;;;10.18;;
37288;SDS011;23174;49.462;11.000;2023-03-01T04:40:40;11.75;;;10.55;;
37288;SDS011;23174;49.462;11.000;2023-03-01T04:42:43;13.60;;;10.68;;
37288;SDS011;23174;49.462;11.000;2023-03-01T04:44:44;11.35;;;10.20;;
37288;SDS011;23174;49.462;11.000;2023-03-01T04:46:45;10.40;;;9.38;;
37288;SDS011;23174;49.462;11.000;2023-03-01T04:48:48;11.68;;;9.98;;
37288;SDS011;23174;49.462;11.000;2023-03-01T04:50:49;11.35;;;10.15;;
37288;SDS011;23174;49.462;11.000;2023-03-01T04:52:49;10.98;;;9.88;;
37288;SDS011;23174;49.462;11.000;2023-03-01T04:54:50;11.00;;;9.70;;
37288;SDS011;23174;49.462;11.000;2023-03-01T04:56:50;11.30;;;10.18;;
37288;SDS011;23174;49.462;11.000;2023-03-01T04:58:52;12.10;;;9.90;;
37288;SDS011;23174;49.462;11.000;2023-03-01T05:00:53;12.93;;;9.73;;
37288;SDS011;23174;49.462;11.000;2023-03-01T05:02:55;14.00;;;10.90;;
37288;SDS011;23174;49.462;11.000;2023-03-01T05:04:57;10.73;;;9.73;;
37288;SDS011;23174;49.462;11.000;2023-03-01T05:06:58;11.55;;;9.60;;
37288;SDS011;23174;49.462;11.000;2023-03-01T05:08:58;12.00;;;9.75;;
37288;SDS011;23174;49.462;11.000;2023-03-01T05:10:59;11.82;;;10.60;;
37288;SDS011;23174;49.462;11.000;2023-03-01T05:13:00;13.15;;;10.68;;
37288;SDS011;23174;49.462;11.000;2023-03-01T05:15:01;10.82;;;9.82;;
37288;SDS011;23174;49.462;11.000;2023-03-01T05:17:07;11.43;;;10.23;;
37288;SDS011;23174;49.462;11.000;2023-03-01T05:19:07;12.35;;;11.05;;
37288;SDS011;23174;49.462;11.000;2023-03-01T05:21:15;13.77;;;11.85;;
37288;SDS011;23174;49.462;11.000;2023-03-01T05:23:16;16.05;;;12.93;;
37288;SDS011;23174;49.462;11.000;2023-03-01T05:25:17;14.23;;;12.27;;
37288;SDS011;23174;49.462;11.000;2023-03-01T05:27:18;13.65;;;11.68;;
37288;SDS011;23174;49.462;11.000;2023-03-01T05:29:22;18.23;;;11.82;;
37288;SDS011;23174;49.462;11.000;2023-03-01T05:31:27;13.25;;;10.93;;
37288;SDS011;23174;49.462;11.000;2023-03-01T05:33:27;16.33;;;12.95;;
37288;SDS011;23174;49.462;11.000;2023-03-01T05:35:28;13.05;;;11.57;;
37288;SDS011;23174;49.462;11.000;2023-03-01T05:37:29;15.68;;;11.65;;
37288;SDS011;23174;49.462;11.000;2023-03-01T05:39:29;13.77;;;12.05;;
37288;SDS011;23174;49.462;11.000;2023-03-01T05:41:31;13.77;;;12.32;;
37288;SDS011;23174;49.462;11.000;2023-03-01T05:43:32;15.52;;;12.20;;
37288;SDS011;23174;49.462;11.000;2023-03-01T05:45:36;20.83;;;12.30;;
37288;SDS011;23174;49.462;11.000;2023-03-01T05:47:40;15.25;;;11.43;;
37288;SDS011;23174;49.462;11.000;2023-03-01T05:49:44;14.40;;;11.65;;
37288;SDS011;23174;49.462;11.000;2023-03-01T05:51:48;17.98;;;12.13;;
37288;SDS011;23174;49.462;11.000;2023-03-01T05:53:51;14.18;;;12.02;;
37288;SDS011;23174;49.462;11.000;2023-03-01T05:55:51;15.55;;;12.13;;
37288;SDS011;23174;49.462;11.000;2023-03-01T05:57:52;16.15;;;12.23;;
37288;SDS011;23174;49.462;11.000;2023-03-01T05:59:53;19.45;;;12.57;;
37288;SDS011;23174;49.462;11.000;2023-03-01T06:01:53;16.15;;;12.25;;
37288;SDS011;23174;49.462;11.000;2023-03-01T06:03:55;15.75;;;12.20;;
37288;SDS011;23174;49.462;11.000;2023-03-01T06:05:57;14.75;;;11.73;;
37288;SDS011;23174;49.462;11.000;2023-03-01T06:07:58;14.10;;;12.02;;
37288;SDS011;23174;49.462;11.000;2023-03-01T06:09:59;17.70;;;12.65;;
37288;SDS011;23174;49.462;11.000;2023-03-01T06:12:00;14.13;;;11.60;;
37288;SDS011;23174;49.462;11.000;2023-03-01T06:14:01;16.40;;;11.15;;
37288;SDS011;23174;49.462;11.000;2023-03-01T06:16:05;15.75;;;12.20;;
37288;SDS011;23174;49.462;11.000;2023-03-01T06:18:07;15.05;;;11.93;;
37288;SDS011;23174;49.462;11.000;2023-03-01T06:20:12;19.05;;;11.95;;
37288;SDS011;23174;49.462;11.000;2023-03-01T06:22:16;15.93;;;12.15;;
37288;SDS011;23174;49.462;11.000;2023-03-01T06:24:16;13.95;;;12.20;;
37288;SDS011;23174;49.462;11.000;2023-03-01T06:26:17;15.07;;;11.85;;
37288;SDS011;23174;49.462;11.000;2023-03-01T06:28:17;14.93;;;11.73;;
37288;SDS011;23174;49.462;11.000;2023-03-01T06:30:19;18.13;;;12.88;;
37288;SDS011;23174;49.462;11.000;2023-03-01T06:32:21;15.45;;;12.70;;
37288;SDS011;23174;49.462;11.000;2023-03-01T06:34:22;18.85;;;12.43;;
37288;SDS011;23174;49.462;11.000;2023-03-01T06:36:23;16.98;;;12.27;;
37288;SDS011;23174;49.462;11.000;2023-03-01T06:38:23;13.38;;;11.95;;
37288;SDS011;23174;49.462;11.000;2023-03-01T06:40:24;14.00;;;12.00;;
37288;SDS011;23174;49.462;11.000;2023-03-01T06:42:25;17.10;;;11.90;;
37288;SDS011;23174;49.462;11.000;2023-03-01T06:44:26;12.30;;;11.00;;
37288;SDS011;23174;49.462;11.000;2023-03-01T06:46:27;13.88;;;11.98;;
37288;SDS011;23174;49.462;11.000;2023-03-01T06:48:27;15.60;;;11.00;;
37288;SDS011;23174;49.462;11.000;2023-03-01T06:50:28;13.82;;;11.80;;
37288;SDS011;23174;49.462;11.000;2023-03-01T06:52:28;12.32;;;11.02;;
37288;SDS011;23174;49.462;11.000;2023-03-01T06:54:29;13.90;;;10.90;;
37288;SDS011;23174;49.462;11.000;2023-03-01T06:56:30;11.90;;;10.68;;
37288;SDS011;23174;49.462;11.000;2023-03-01T06:58:31;13.77;;;10.88;;
37288;SDS011;23174;49.462;11.000;2023-03-01T07:00:32;11.88;;;10.25;;
37288;SDS011;23174;49.462;11.000;2023-03-01T07:02:33;12.63;;;10.63;;
37288;SDS011;23174;49.462;11.000;2023-03-01T07:04:33;13.30;;;11.93;;
37288;SDS011;23174;49.462;11.000;2023-03-01T07:06:34;12.23;;;10.93;;
37288;SDS011;23174;49.462;11.000;2023-03-01T07:08:34;13.48;;;11.75;;
37288;SDS011;23174;49.462;11.000;2023-03-01T07:10:35;13.85;;;11.68;;
37288;SDS011;23174;49.462;11.000;2023-03-01T07:12:35;12.38;;;11.20;;
37288;SDS011;23174;49.462;11.000;2023-03-01T07:14:36;18.10;;;11.77;;
37288;SDS011;23174;49.462;11.000;2023-03-01T07:16:37;12.73;;;11.32;;
37288;SDS011;23174;49.462;11.000;2023-03-01T07:18:37;13.35;;;10.77;;
37288;SDS011;23174;49.462;11.000;2023-03-01T07:20:38;16.85;;;11.73;;
37288;SDS011;23174;49.462;11.000;2023-03-01T07:22:41;13.65;;;11.57;;
37288;SDS011;23174;49.462;11.000;2023-03-01T07:24:42;12.75;;;11.30;;
37288;SDS011;23174;49.462;11.000;2023-03-01T07:26:43;14.82;;;11.85;;
37288;SDS011;23174;49.462;11.000;2023-03-01T07:28:44;15.95;;;11.77;;
37288;SDS011;23174;49.462;11.000;2023-03-01T07:30:44;14.07;;;11.10;;
37288;SDS011;23174;49.462;11.000;2023-03-01T07:32:45;16.75;;;11.80;;
37288;SDS011;23174;49.462;11.000;2023-03-01T07:34:45;14.77;;;11.30;;
37288;SDS011;23174;49.462;11.000;2023-03-01T07:36:46;16.15;;;11.88;;
37288;SDS011;23174;49.462;11.000;2023-03-01T07:38:47;15.80;;;11.95;;
37288;SDS011;23174;49.462;11.000;2023-03-01T07:40:48;16.65;;;10.85;;
37288;SDS011;23174;49.462;11.000;2023-03-01T07:42:48;14.90;;;12.18;;
37288;SDS011;23174;49.462;11.000;2023-03-01T07:44:49;13.82;;;12.10;;
37288;SDS011;23174;49.462;11.000;2023-03-01T07:46:50;17.48;;;11.75;;
37288;SDS011;23174;49.462;11.000;2023-03-01T07:48:52;14.10;;;12.60;;
37288;SDS011;23174;49.462;11.000;2023-03-01T07:50:53;19.45;;;12.10;;
37288;SDS011;23174;49.462;11.000;2023-03-01T07:52:53;17.35;;;12.73;;
37288;SDS011;23174;49.462;11.000;2023-03-01T07:54:54;13.27;;;11.85;;
37288;SDS011;23174;49.462;11.000;2023-03-01T07:56:55;15.82;;;12.02;;
37288;SDS011;23174;49.462;11.000;2023-03-01T07:58:58;14.48;;;12.77;;
37288;SDS011;23174;49.462;11.000;2023-03-01T08:01:03;14.80;;;12.05;;
37288;SDS011;23174;49.462;11.000;2023-03-01T08:03:05;13.48;;;12.07;;
37288;SDS011;23174;49.462;11.000;2023-03-01T08:05:05;13.13;;;11.80;;
37288;SDS011;23174;49.462;11.000;2023-03-01T08:07:06;15.93;;;12.75;;
37288;SDS011;23174;49.462;11.000;2023-03-01T08:09:07;14.15;;;11.75;;
37288;SDS011;23174;49.462;11.000;2023-03-01T08:11:10;13.85;;;12.18;;
37288;SDS011;23174;49.462;11.000;2023-03-01T08:13:11;11.93;;;10.73;;
37288;SDS011;23174;49.462;11.000;2023-03-01T08:15:12;14.48;;;12.48;;
37288;SDS011;23174;49.462;11.000;2023-03-01T08:17:13;13.25;;;11.85;;
37288;SDS011;23174;49.462;11.000;2023-03-01T08:19:14;13.15;;;11.85;;
37288;SDS011;23174;49.462;11.000;2023-03-01T08:21:15;16.05;;;13.52;;
37288;SDS011;23174;49.462;11.000;2023-03-01T08:23:17;13.90;;;12.43;;
37288;SDS011;23174;49.462;11.000;2023-03-01T08:25:18;15.85;;;12.27;;
37288;SDS011;23174;49.462;11.000;2023-03-01T08:27:18;18.60;;;12.98;;
37288;SDS011;23174;49.462;11.000;2023-03-01T08:29:19;14.18;;;12.68;;
37288;SDS011;23174;49.462;11.000;2023-03-01T08:31:21;13.65;;;12.25;;
37288;SDS011;23174;49.462;11.000;2023-03-01T08:33:23;14.13;;;12.63;;
37288;SDS011;23174;49.462;11.000;2023-03-01T08:35:24;17.15;;;12.63;;
37288;SDS011;23174;49.462;11.000;2023-03-01T08:37:24;14.73;;;12.00;;
37288;SDS011;23174;49.462;11.000;2023-03-01T08:39:25;14.52;;;12.05;;
37288;SDS011;23174;49.462;11.000;2023-03-01T08:41:26;14.30;;;11.80;;
37288;SDS011;23174;49.462;11.000;2023-03-01T08:43:26;13.40;;;12.07;;
37288;SDS011;23174;49.462;11.000;2023-03-01T08:45:27;13.45;;;11.95;;
37288;SDS011;23174;49.462;11.000;2023-03-01T08:47:27;14.57;;;12.65;;
37288;SDS011;23174;49.462;11.000;2023-03-01T08:49:28;15.95;;;12.65;;
37288;SDS011;23174;49.462;11.000;2023-03-01T08:51:29;16.63;;;12.70;;
37288;SDS011;23174;49.462;11.000;2023-03-01T08:53:31;19.55;;;12.35;;
37288;SDS011;23174;49.462;11.000;2023-03-01T08:55:32;14.18;;;12.77;;
37288;SDS011;23174;49.462;11.000;2023-03-01T08:57:32;14.05;;;12.55;;
37288;SDS011;23174;49.462;11.000;2023-03-01T08:59:33;15.40;;;12.93;;
37288;SDS011;23174;49.462;11.000;2023-03-01T09:01:37;14.38;;;11.70;;
37288;SDS011;23174;49.462;11.000;2023-03-01T09:03:38;14.40;;;12.48;;
37288;SDS011;23174;49.462;11.000;2023-03-01T09:05:38;13.77;;;12.38;;
37288;SDS011;23174;49.462;11.000;2023-03-01T09:07:39;14.60;;;13.00;;
37288;SDS011;23174;49.462;11.000;2023-03-01T09:09:39;14.23;;;12.25;;
37288;SDS011;23174;49.462;11.000;2023-03-01T09:11:40;13.57;;;12.13;;
37288;SDS011;23174;49.462;11.000;2023-03-01T09:13:41;14.40;;;13.00;;
37288;SDS011;23174;49.462;11.000;2023-03-01T09:15:41;14.63;;;12.60;;
37288;SDS011;23174;49.462;11.000;2023-03-01T09:17:42;15.77;;;13.15;;
37288;SDS011;23174;49.462;11.000;2023-03-01T09:19:42;17.33;;;13.52;;
37288;SDS011;23174;49.462;11.000;2023-03-01T09:21:43;15.18;;;12.38;;
37288;SDS011;23174;49.462;11.000;2023-03-01T09:23:52;13.80;;;12.38;;
37288;SDS011;23174;49.462;11.000;2023-03-01T09:25:52;17.05;;;12.70;;
37288;SDS011;23174;49.462;11.000;2023-03-01T09:27:53;15.23;;;13.02;;
37288;SDS011;23174;49.462;11.000;2023-03-01T09:29:54;17.05;;;13.38;;
37288;SDS011;23174;49.462;11.000;2023-03-01T09:31:56;13.82;;;12.38;;
37288;SDS011;23174;49.462;11.000;2023-03-01T09:33:57;20.83;;;12.65;;
37288;SDS011;23174;49.462;11.000;2023-03-01T09:36:02;16.27;;;12.45;;
37288;SDS011;23174;49.462;11.000;2023-03-01T09:38:04;13.55;;;12.25;;
37288;SDS011;23174;49.462;11.000;2023-03-01T09:40:05;13.77;;;12.15;;
37288;SDS011;23174;49.462;11.000;2023-03-01T09:42:10;14.48;;;12.35;;
37288;SDS011;23174;49.462;11.000;2023-03-01T09:44:32;18.52;;;13.10;;
37288;SDS011;23174;49.462;11.000;2023-03-01T09:46:53;14.40;;;11.82;;
37288;SDS011;23174;49.462;11.000;2023-03-01T09:48:57;15.52;;;13.15;;
37288;SDS011;23174;49.462;11.000;2023-03-01T09:51:06;15.55;;;12.13;;
37288;SDS011;23174;49.462;11.000;2023-03-01T09:53:22;13.75;;;12.30;;
37288;SDS011;23174;49.462;11.000;2023-03-01T09:55:34;17.13;;;11.70;;
37288;SDS011;23174;49.462;11.000;2023-03-01T10:04:37;16.95;;;13.55;;
37288;SDS011;23174;49.462;11.000;2023-03-01T10:06:52;12.00;;;10.70;;
37288;SDS011;23174;49.462;11.000;2023-03-01T10:09:10;13.85;;;11.48;;
37288;SDS011;23174;49.462;11.000;2023-03-01T10:11:18;15.40;;;12.73;;
37288;SDS011;23174;49.462;11.000;2023-03-01T10:17:57;15.30;;;12.48;;
37288;SDS011;23174;49.462;11.000;2023-03-01T10:22:29;16.35;;;12.27;;
37288;SDS011;23174;49.462;11.000;2023-03-01T10:24:34;13.93;;;12.40;;
37288;SDS011;23174;49.462;11.000;2023-03-01T10:26:55;16.88;;;12.60;;
37288;SDS011;23174;49.462;11.000;2023-03-01T10:31:11;13.93;;;12.50;;
37288;SDS011;23174;49.462;11.000;2023-03-01T10:33:18;15.60;;;12.95;;
37288;SDS011;23174;49.462;11.000;2023-03-01T10:35:24;13.05;;;11.75;;
37288;SDS011;23174;49.462;11.000;2023-03-01T10:37:27;14.93;;;12.55;;
37288;SDS011;23174;49.462;11.000;2023-03-01T10:39:28;16.17;;;12.30;;
37288;SDS011;23174;49.462;11.000;2023-03-01T10:41:28;14.13;;;11.77;;
37288;SDS011;23174;49.462;11.000;2023-03-01T10:43:40;15.85;;;13.05;;
37288;SDS011;23174;49.462;11.000;2023-03-01T10:45:45;16.75;;;12.55;;
37288;SDS011;23174;49.462;11.000;2023-03-01T10:47:45;16.48;;;13.35;;
37288;SDS011;23174;49.462;11.000;2023-03-01T10:51:55;15.30;;;12.07;;
37288;SDS011;23174;49.462;11.000;2023-03-01T10:53:56;15.60;;;13.00;;
37288;SDS011;23174;49.462;11.000;2023-03-01T10:56:13;15.55;;;12.48;;
37288;SDS011;23174;49.462;11.000;2023-03-01T10:58:19;13.65;;;12.27;;
37288;SDS011;23174;49.462;11.000;2023-03-01T11:00:22;14.00;;;12.02;;
37288;SDS011;23174;49.462;11.000;2023-03-01T11:02:29;17.92;;;12.00;;
37288;SDS011;23174;49.462;11.000;2023-03-01T11:04:32;16.67;;;12.40;;
37288;SDS011;23174;49.462;11.000;2023-03-01T11:06:33;13.50;;;12.00;;
37288;SDS011;23174;49.462;11.000;2023-03-01T11:08:37;12.63;;;11.32;;
37288;SDS011;23174;49.462;11.000;2023-03-01T11:10:45;16.70;;;12.45;;
37288;SDS011;23174;49.462;11.000;2023-03-01T11:12:45;14.73;;;11.70;;
37288;SDS011;23174;49.462;11.000;2023-03-01T11:14:50;12.13;;;10.82;;
37288;SDS011;23174;49.462;11.000;2023-03-01T11:17:01;19.05;;;11.13;;
37288;SDS011;23174;49.462;11.000;2023-03-01T11:21:15;12.35;;;10.88;;
37288;SDS011;23174;49.462;11.000;2023-03-01T11:23:16;13.20;;;11.32;;
37288;SDS011;23174;49.462;11.000;2023-03-01T11:25:17;15.40;;;11.80;;
37288;SDS011;23174;49.462;11.000;2023-03-01T11:27:28;19.63;;;11.77;;
37288;SDS011;23174;49.462;11.000;2023-03-01T11:29:35;17.90;;;11.83;;
37288;SDS011;23174;49.462;11.000;2023-03-01T11:31:38;13.15;;;11.52;;
37288;SDS011;23174;49.462;11.000;2023-03-01T11:33:48;12.32;;;10.30;;
37288;SDS011;23174;49.462;11.000;2023-03-01T11:36:06;13.32;;;11.70;;
37288;SDS011;23174;49.462;11.000;2023-03-01T11:38:26;15.80;;;11.68;;
37288;SDS011;23174;49.462;11.000;2023-03-01T11:40:37;12.75;;;11.43;;
37288;SDS011;23174;49.462;11.000;2023-03-01T11:43:00;12.05;;;10.80;;
37288;SDS011;23174;49.462;11.000;2023-03-01T11:45:22;12.13;;;10.55;;
37288;SDS011;23174;49.462;11.000;2023-03-01T11:49:34;12.88;;;10.43;;
37288;SDS011;23174;49.462;11.000;2023-03-01T11:51:52;13.45;;;11.07;;
37288;SDS011;23174;49.462;11.000;2023-03-01T11:53:59;11.15;;;9.95;;
37288;SDS011;23174;49.462;11.000;2023-03-01T11:58:42;18.98;;;12.25;;
37288;SDS011;23174;49.462;11.000;2023-03-01T12:01:24;13.18;;;11.27;;
37288;SDS011;23174;49.462;11.000;2023-03-01T12:08:12;15.10;;;10.75;;
37288;SDS011;23174;49.462;11.000;2023-03-01T12:10:42;12.73;;;11.43;;
37288;SDS011;23174;49.462;11.000;2023-03-01T12:15:39;12.07;;;10.63;;
37288;SDS011;23174;49.462;11.000;2023-03-01T12:18:18;13.25;;;10.13;;
37288;SDS011;23174;49.462;11.000;2023-03-01T12:20:51;11.35;;;9.80;;
37288;SDS011;23174;49.462;11.000;2023-03-01T12:25:28;10.93;;;9.82;;
37288;SDS011;23174;49.462;11.000;2023-03-01T12:47:03;11.60;;;9.20;;
37288;SDS011;23174;49.462;11.000;2023-03-01T12:51:30;13.45;;;9.07;;
37288;SDS011;23174;49.462;11.000;2023-03-01T12:53:36;14.65;;;9.80;;
37288;SDS011;23174;49.462;11.000;2023-03-01T12:55:45;14.45;;;9.82;;
37288;SDS011;23174;49.462;11.000;2023-03-01T12:57:48;13.40;;;9.43;;
37288;SDS011;23174;49.462;11.000;2023-03-01T13:00:03;10.50;;;9.27;;
37288;SDS011;23174;49.462;11.000;2023-03-01T13:04:38;14.27;;;9.63;;